Time;durP1;ratioP1;P1;durP2;ratioP2;P2;SDS_P1;SDS_P2;PMS_P1;PMS_P2;Temp;Humidity;BMP_temperature;BMP_pressure;BME280_temperature;BME280_humidity;BME280_pressure;Samples;Min_cycle;Max_cycle;Signal;HPM_P1;HPM_P2
2023/09/27 00:02:09;;;;;;;6.68;4.68;;;;;;;11.07;100.00;97742.84;5005137;28;20112;-61
2023/09/27 00:04:36;;;;;;;8.85;5.65;;;;;;;11.17;100.00;97734.06;4989696;28;20073;-61
2023/09/27 00:07:03;;;;;;;9.07;5.20;;;;;;;11.29;100.00;97742.13;5005981;28;20038;-62
2023/09/27 00:09:31;;;;;;;6.13;4.38;;;;;;;11.24;100.00;97729.28;5006972;28;20134;-62
2023/09/27 00:11:58;;;;;;;7.40;4.47;;;;;;;11.29;100.00;97723.97;5008807;28;20400;-62
2023/09/27 00:14:25;;;;;;;7.65;4.60;;;;;;;11.34;100.00;97720.50;5006083;28;20049;-61
2023/09/27 00:16:51;;;;;;;7.10;4.47;;;;;;;11.40;100.00;97724.94;5005924;28;20052;-62
2023/09/27 00:19:18;;;;;;;6.93;4.88;;;;;;;11.40;100.00;97724.09;5006454;28;20183;-62
2023/09/27 00:21:45;;;;;;;6.18;4.30;;;;;;;11.44;100.00;97711.69;5006154;28;20038;-62
2023/09/27 00:24:11;;;;;;;8.20;4.53;;;;;;;11.39;100.00;97708.91;5005407;28;20405;-62
2023/09/27 00:26:38;;;;;;;7.32;4.18;;;;;;;11.31;100.00;97708.25;5006691;28;20067;-61
2023/09/27 00:29:05;;;;;;;8.55;4.68;;;;;;;11.34;100.00;97719.66;5004744;28;20046;-62
2023/09/27 00:31:32;;;;;;;6.82;4.78;;;;;;;11.34;100.00;97720.50;5003246;28;20420;-62
2023/09/27 00:33:58;;;;;;;6.53;4.57;;;;;;;11.26;100.00;97716.31;5003786;28;20645;-62
2023/09/27 00:36:25;;;;;;;8.30;4.93;;;;;;;11.10;100.00;97719.88;5005777;28;20038;-62
2023/09/27 00:38:51;;;;;;;6.80;4.28;;;;;;;11.04;100.00;97716.25;5007268;28;20836;-62
2023/09/27 00:41:18;;;;;;;8.05;4.97;;;;;;;10.85;100.00;97716.50;5005494;28;20523;-61
2023/09/27 00:43:45;;;;;;;6.60;4.55;;;;;;;10.78;100.00;97729.38;5005848;28;20505;-62
2023/09/27 00:46:15;;;;;;;6.53;4.60;;;;;;;10.85;100.00;97731.91;4987529;28;20046;-62
2023/09/27 00:48:43;;;;;;;5.83;4.47;;;;;;;10.96;100.00;97728.31;4988879;28;20050;-61
2023/09/27 00:51:09;;;;;;;7.25;4.63;;;;;;;11.09;100.00;97720.94;5004769;28;20295;-62
2023/09/27 00:53:38;;;;;;;8.52;5.28;;;;;;;11.08;100.00;97717.41;5006637;28;20062;-62
2023/09/27 00:56:05;;;;;;;5.22;4.13;;;;;;;11.08;100.00;97720.09;5005296;28;20473;-62
2023/09/27 00:58:36;;;;;;;7.57;4.70;;;;;;;11.09;100.00;97721.75;5006063;28;20050;-62
2023/09/27 01:01:03;;;;;;;11.60;5.05;;;;;;;11.11;100.00;97733.16;5004711;28;20044;-62
2023/09/27 01:03:32;;;;;;;6.32;4.63;;;;;;;11.18;100.00;97733.81;5000337;28;20052;-62
2023/09/27 01:05:58;;;;;;;6.50;4.47;;;;;;;11.22;100.00;97727.91;5005069;28;20600;-61
2023/09/27 01:08:25;;;;;;;6.95;4.90;;;;;;;11.18;100.00;97727.59;5003620;28;20489;-61
2023/09/27 01:10:51;;;;;;;6.60;4.55;;;;;;;11.17;100.00;97723.22;4984409;28;20069;-62
2023/09/27 01:13:18;;;;;;;6.53;4.55;;;;;;;11.22;100.00;97708.91;5004510;28;20100;-62
2023/09/27 01:15:45;;;;;;;6.28;4.65;;;;;;;11.11;100.00;97716.91;5004544;28;20037;-62
2023/09/27 01:18:12;;;;;;;6.50;4.85;;;;;;;11.05;100.00;97720.59;5003615;28;20045;-61
2023/09/27 01:20:38;;;;;;;5.93;4.57;;;;;;;11.19;100.00;97726.50;5004545;28;20092;-62
2023/09/27 01:23:06;;;;;;;6.35;4.88;;;;;;;11.17;100.00;97725.94;4987455;28;20053;-62
2023/09/27 01:25:37;;;;;;;7.43;5.38;;;;;;;11.01;100.00;97722.16;5006012;28;20045;-62
2023/09/27 01:28:10;;;;;;;6.57;4.68;;;;;;;10.82;100.00;97719.69;4996830;28;20761;-62
2023/09/27 01:30:38;;;;;;;11.27;5.30;;;;;;;10.70;100.00;97725.19;5006663;28;20515;-61
2023/09/27 01:33:07;;;;;;;8.18;5.43;;;;;;;10.65;100.00;97739.44;5003624;28;20061;-62
2023/09/27 01:35:38;;;;;;;7.38;5.28;;;;;;;10.70;100.00;97733.31;5005385;28;20034;-61
2023/09/27 01:38:06;;;;;;;7.82;5.00;;;;;;;10.84;100.00;97725.66;5003595;28;20053;-62
2023/09/27 01:40:37;;;;;;;6.10;4.75;;;;;;;10.94;100.00;97722.31;5005115;28;20034;-62
2023/09/27 01:43:04;;;;;;;9.02;5.15;;;;;;;11.01;100.00;97709.44;5008217;28;20124;-61
2023/09/27 01:45:31;;;;;;;10.82;5.22;;;;;;;11.08;100.00;97714.69;4987277;28;20421;-62
2023/09/27 01:48:00;;;;;;;9.90;5.30;;;;;;;11.13;100.00;97722.09;4986236;28;20049;-62
2023/09/27 01:50:28;;;;;;;6.70;4.53;;;;;;;11.16;100.00;97727.00;5004059;28;20099;-62
2023/09/27 01:52:57;;;;;;;6.75;4.50;;;;;;;11.26;100.00;97732.59;5003138;28;20042;-62
2023/09/27 01:55:24;;;;;;;7.82;5.18;;;;;;;11.22;100.00;97736.88;5004003;28;20045;-61
2023/09/27 01:57:52;;;;;;;8.48;5.32;;;;;;;11.00;100.00;97737.59;5005284;28;20048;-61
2023/09/27 02:00:20;;;;;;;7.78;5.05;;;;;;;10.92;100.00;97736.09;4992141;28;20053;-61
2023/09/27 02:02:55;;;;;;;7.32;5.60;;;;;;;10.79;100.00;97749.97;4984733;28;20033;-61
2023/09/27 02:05:23;;;;;;;8.70;5.85;;;;;;;10.79;100.00;97752.66;4985503;28;20614;-61
2023/09/27 02:07:50;;;;;;;7.57;5.43;;;;;;;10.87;100.00;97736.03;5003841;28;20041;-61
2023/09/27 02:10:16;;;;;;;7.20;4.90;;;;;;;10.87;100.00;97737.94;4986890;28;20493;-62
2023/09/27 02:12:43;;;;;;;7.18;4.90;;;;;;;10.88;100.00;97734.16;4999235;28;20709;-62
2023/09/27 02:15:13;;;;;;;8.25;5.55;;;;;;;10.93;100.00;97736.94;5003105;28;20585;-61
2023/09/27 02:17:40;;;;;;;8.68;5.05;;;;;;;11.07;100.00;97742.84;4986582;28;20037;-61
2023/09/27 02:20:08;;;;;;;7.38;4.40;;;;;;;11.09;100.00;97746.13;5003159;28;20069;-62
2023/09/27 02:22:35;;;;;;;6.15;4.80;;;;;;;11.15;100.00;97731.59;5006258;28;20052;-62
2023/09/27 02:25:09;;;;;;;7.30;4.80;;;;;;;11.31;100.00;97734.53;5004377;28;20435;-62
2023/09/27 02:27:36;;;;;;;5.90;4.50;;;;;;;11.39;100.00;97723.28;5002723;28;20129;-62
2023/09/27 02:30:06;;;;;;;6.05;4.32;;;;;;;11.26;100.00;97729.88;5003404;28;20037;-61
2023/09/27 02:32:33;;;;;;;6.93;4.53;;;;;;;11.09;100.00;97734.50;4999164;28;20034;-62
2023/09/27 02:35:00;;;;;;;7.03;4.60;;;;;;;11.09;100.00;97732.56;4985562;28;20049;-62
2023/09/27 02:37:27;;;;;;;6.45;4.75;;;;;;;10.86;100.00;97738.97;5004130;28;20041;-62
2023/09/27 02:39:54;;;;;;;7.65;4.82;;;;;;;10.69;100.00;97737.06;5003551;28;20049;-61
2023/09/27 02:42:20;;;;;;;7.80;4.70;;;;;;;10.75;100.00;97741.50;4986912;28;20053;-61
2023/09/27 02:44:47;;;;;;;6.85;4.47;;;;;;;10.85;100.00;97721.91;4989017;28;20042;-61
2023/09/27 02:47:14;;;;;;;9.10;5.00;;;;;;;10.93;100.00;97726.94;5002992;28;20046;-62
2023/09/27 02:49:40;;;;;;;7.43;4.60;;;;;;;10.98;100.00;97725.38;5004192;28;20120;-62
2023/09/27 02:52:07;;;;;;;6.53;4.97;;;;;;;10.87;100.00;97724.38;5002169;28;20046;-61
2023/09/27 02:54:33;;;;;;;7.55;5.18;;;;;;;10.69;100.00;97725.41;4986125;28;20057;-62
2023/09/27 02:57:00;;;;;;;7.55;4.80;;;;;;;10.64;100.00;97721.56;5002174;28;20056;-62
2023/09/27 02:59:28;;;;;;;6.18;4.32;;;;;;;10.73;100.00;97723.88;5002562;28;20149;-61
2023/09/27 03:01:55;;;;;;;15.60;4.88;;;;;;;10.75;100.00;97711.72;4996274;28;20671;-62
2023/09/27 03:04:22;;;;;;;9.30;4.97;;;;;;;10.75;100.00;97706.31;4998709;28;20046;-62
2023/09/27 03:06:49;;;;;;;6.38;4.70;;;;;;;10.69;100.00;97715.38;5019084;28;20129;-62
2023/09/27 03:09:16;;;;;;;7.32;5.07;;;;;;;10.57;100.00;97718.16;4999982;28;20140;-62
2023/09/27 03:11:43;;;;;;;8.10;4.70;;;;;;;10.52;100.00;97716.22;4985237;28;20041;-61
2023/09/27 03:14:09;;;;;;;7.47;4.40;;;;;;;10.45;100.00;97720.94;4980718;28;20272;-61
2023/09/27 03:16:37;;;;;;;7.20;4.85;;;;;;;10.28;100.00;97726.25;4985504;28;20046;-62
2023/09/27 03:19:04;;;;;;;7.20;4.55;;;;;;;10.32;100.00;97722.00;4984200;28;20034;-61
2023/09/27 03:21:31;;;;;;;12.52;4.90;;;;;;;10.15;100.00;97721.97;5002241;28;20121;-62
2023/09/27 03:23:57;;;;;;;7.35;4.75;;;;;;;9.88;100.00;97720.63;5002865;28;20049;-61
2023/09/27 03:26:24;;;;;;;6.95;4.97;;;;;;;9.80;100.00;97733.72;4985635;28;20053;-61
2023/09/27 03:28:51;;;;;;;9.70;4.95;;;;;;;9.67;100.00;97732.91;5000957;28;20069;-61
2023/09/27 03:31:19;;;;;;;7.72;4.82;;;;;;;9.63;100.00;97740.66;4983974;28;20069;-62
2023/09/27 03:33:49;;;;;;;7.63;5.40;;;;;;;9.67;100.00;97751.00;5006370;28;20124;-61
2023/09/27 03:36:15;;;;;;;8.70;5.28;;;;;;;9.77;100.00;97753.94;4987145;28;20038;-62
2023/09/27 03:38:42;;;;;;;7.70;5.38;;;;;;;9.79;100.00;97750.97;5007550;28;20508;-61
2023/09/27 03:41:11;;;;;;;6.95;5.03;;;;;;;9.93;100.00;97743.44;4988092;28;20049;-62
2023/09/27 03:43:38;;;;;;;7.75;4.93;;;;;;;10.09;100.00;97742.69;5006785;28;20038;-61
2023/09/27 03:46:05;;;;;;;7.65;5.05;;;;;;;10.26;100.00;97742.78;5006300;28;20042;-61
2023/09/27 03:48:33;;;;;;;8.38;4.97;;;;;;;10.32;100.00;97735.53;4989215;28;20505;-62
2023/09/27 03:51:00;;;;;;;8.20;4.90;;;;;;;10.39;100.00;97740.81;4988793;28;20042;-61
2023/09/27 03:53:28;;;;;;;8.98;4.93;;;;;;;10.47;100.00;97737.75;4993288;28;20069;-62
2023/09/27 03:55:55;;;;;;;5.70;4.35;;;;;;;10.41;100.00;97738.69;4999357;28;20128;-62
2023/09/27 03:58:22;;;;;;;7.88;4.65;;;;;;;10.45;100.00;97744.47;4988697;28;20085;-62
2023/09/27 04:00:48;;;;;;;6.25;4.47;;;;;;;10.46;100.00;97736.13;4989325;28;20068;-61
2023/09/27 04:03:20;;;;;;;6.10;4.45;;;;;;;10.26;100.00;97737.34;5005750;28;20536;-61
2023/09/27 04:05:46;;;;;;;7.28;4.80;;;;;;;10.27;100.00;97733.59;5007101;28;20049;-61
2023/09/27 04:08:13;;;;;;;7.85;4.85;;;;;;;10.39;100.00;97729.97;4987524;28;20048;-62
2023/09/27 04:10:39;;;;;;;5.55;4.25;;;;;;;10.47;100.00;97735.03;5006650;28;20045;-61
2023/09/27 04:13:06;;;;;;;7.85;4.65;;;;;;;10.49;100.00;97730.22;5005316;28;20054;-61
2023/09/27 04:15:35;;;;;;;6.13;4.22;;;;;;;10.44;100.00;97740.97;5006527;28;20037;-61
2023/09/27 04:18:02;;;;;;;7.03;4.63;;;;;;;10.48;100.00;97734.00;5005806;28;20084;-61
2023/09/27 04:20:29;;;;;;;6.18;4.40;;;;;;;10.37;100.00;97738.38;5005176;28;20038;-61
2023/09/27 04:22:58;;;;;;;7.25;5.63;;;;;;;10.15;100.00;97739.00;5004693;28;20100;-62
2023/09/27 04:25:24;;;;;;;7.93;5.63;;;;;;;10.01;100.00;97753.88;5005996;28;20069;-61
2023/09/27 04:27:51;;;;;;;8.25;5.75;;;;;;;9.92;100.00;97755.31;5005969;28;20045;-61
2023/09/27 04:30:22;;;;;;;7.22;5.15;;;;;;;9.89;100.00;97746.59;5005751;28;20088;-61
2023/09/27 04:32:53;;;;;;;6.82;5.13;;;;;;;9.88;100.00;97752.28;5006064;28;20526;-61
2023/09/27 04:35:21;;;;;;;7.40;4.90;;;;;;;9.85;100.00;97747.34;5005077;28;20527;-61
2023/09/27 04:37:48;;;;;;;6.63;4.88;;;;;;;9.85;100.00;97752.75;5006628;28;20061;-61
2023/09/27 04:40:15;;;;;;;8.23;5.50;;;;;;;9.86;100.00;97765.19;5005194;28;20054;-61
2023/09/27 04:42:42;;;;;;;7.15;4.32;;;;;;;9.91;100.00;97773.41;5004896;28;20066;-61
2023/09/27 04:45:11;;;;;;;7.70;4.82;;;;;;;9.83;100.00;97771.91;5004753;28;20052;-61
2023/09/27 04:47:39;;;;;;;8.60;5.47;;;;;;;9.74;100.00;97771.44;5005568;28;20048;-61
2023/09/27 04:50:10;;;;;;;7.25;4.65;;;;;;;9.74;100.00;97776.84;5005246;28;20129;-61
2023/09/27 04:52:38;;;;;;;7.15;5.10;;;;;;;9.71;100.00;97769.22;4997883;28;20053;-61
2023/09/27 04:55:05;;;;;;;7.57;5.43;;;;;;;9.67;100.00;97768.06;5003245;28;20038;-61
2023/09/27 04:57:32;;;;;;;6.82;5.00;;;;;;;9.63;100.00;97772.28;5002479;28;20069;-61
2023/09/27 04:59:58;;;;;;;7.72;4.43;;;;;;;9.74;100.00;97774.13;5004472;28;20048;-61
2023/09/27 05:02:25;;;;;;;8.70;4.68;;;;;;;9.83;100.00;97773.78;5004601;28;20041;-61
2023/09/27 05:04:52;;;;;;;9.20;4.75;;;;;;;9.75;100.00;97781.22;5007854;28;20046;-61
2023/09/27 05:07:19;;;;;;;7.90;4.78;;;;;;;9.55;100.00;97783.44;5004739;28;20068;-61
2023/09/27 05:09:47;;;;;;;6.90;4.82;;;;;;;9.30;100.00;97800.72;5007741;28;20053;-62
2023/09/27 05:12:14;;;;;;;7.32;5.43;;;;;;;9.30;100.00;97823.16;5002145;28;20100;-62
2023/09/27 05:14:41;;;;;;;7.32;5.00;;;;;;;9.25;100.00;97828.41;4998005;28;20053;-62
2023/09/27 05:17:08;;;;;;;7.72;5.80;;;;;;;9.32;100.00;97831.03;5005615;28;20064;-63
2023/09/27 05:19:35;;;;;;;7.28;5.03;;;;;;;9.45;100.00;97819.16;5004516;28;20651;-62
2023/09/27 05:22:02;;;;;;;7.07;5.35;;;;;;;9.39;100.00;97831.72;5000067;28;20045;-62
2023/09/27 05:24:28;;;;;;;7.78;4.93;;;;;;;9.38;100.00;97819.28;5004878;28;20065;-63
2023/09/27 05:26:59;;;;;;;9.38;5.32;;;;;;;9.46;100.00;97824.34;5002993;28;20034;-62
2023/09/27 05:29:25;;;;;;;7.55;5.20;;;;;;;9.31;100.00;97819.41;4983289;28;20033;-63
2023/09/27 05:31:52;;;;;;;6.97;4.63;;;;;;;9.25;100.00;97809.50;5005364;28;20341;-63
2023/09/27 05:34:18;;;;;;;8.15;5.15;;;;;;;9.22;100.00;97813.50;5001279;28;20871;-63
2023/09/27 05:36:46;;;;;;;8.68;5.93;;;;;;;9.21;100.00;97811.84;5002601;28;20038;-62
2023/09/27 05:39:12;;;;;;;6.97;4.90;;;;;;;9.18;100.00;97811.50;5000395;28;20046;-63
2023/09/27 05:41:39;;;;;;;9.05;5.38;;;;;;;9.23;100.00;97815.16;5002831;28;20398;-62
2023/09/27 05:44:06;;;;;;;8.55;5.18;;;;;;;9.35;100.00;97815.16;5003016;28;20079;-63
2023/09/27 05:46:33;;;;;;;9.10;5.07;;;;;;;9.28;100.00;97808.25;5002028;28;20045;-62
2023/09/27 05:49:05;;;;;;;7.90;5.50;;;;;;;9.20;100.00;97817.47;5003155;28;20689;-62
2023/09/27 05:51:31;;;;;;;10.70;5.65;;;;;;;9.15;100.00;97829.00;5001631;28;20069;-63
2023/09/27 05:53:58;;;;;;;7.20;5.43;;;;;;;9.11;100.00;97823.22;4998083;28;20061;-63
2023/09/27 05:56:25;;;;;;;10.68;5.60;;;;;;;9.05;100.00;97820.63;5001073;28;20046;-63
2023/09/27 05:58:52;;;;;;;8.18;5.47;;;;;;;9.01;100.00;97814.03;5002096;28;21418;-63
2023/09/27 06:01:20;;;;;;;7.25;5.20;;;;;;;8.87;100.00;97826.91;5000748;28;20046;-62
2023/09/27 06:03:46;;;;;;;8.38;5.20;;;;;;;8.85;100.00;97833.34;5001473;28;20068;-62
2023/09/27 06:06:14;;;;;;;8.18;5.80;;;;;;;8.88;100.00;97837.47;4999761;28;20049;-62
2023/09/27 06:08:41;;;;;;;8.13;5.90;;;;;;;8.96;100.00;97841.75;5002471;28;20056;-62
2023/09/27 06:11:09;;;;;;;7.82;5.63;;;;;;;9.03;100.00;97831.66;5001417;28;20046;-62
2023/09/27 06:13:38;;;;;;;9.18;5.72;;;;;;;9.11;100.00;97828.63;4996410;28;20096;-62
2023/09/27 06:16:13;;;;;;;9.52;6.45;;;;;;;9.17;100.00;97834.97;5002611;28;20052;-63
2023/09/27 06:18:40;;;;;;;8.85;6.30;;;;;;;9.21;100.00;97836.16;5000817;28;20541;-62
2023/09/27 06:21:07;;;;;;;8.60;5.80;;;;;;;9.30;100.00;97841.25;5001783;28;20705;-62
2023/09/27 06:23:35;;;;;;;8.73;5.70;;;;;;;9.41;100.00;97839.63;5003139;28;20049;-63
2023/09/27 06:26:02;;;;;;;13.05;6.13;;;;;;;9.56;100.00;97839.16;5001167;28;20061;-63
2023/09/27 06:28:29;;;;;;;10.68;5.50;;;;;;;9.67;100.00;97830.25;5000971;28;20117;-62
2023/09/27 06:30:56;;;;;;;8.35;5.75;;;;;;;9.82;100.00;97834.34;5001073;28;20046;-64
2023/09/27 06:33:22;;;;;;;9.25;5.30;;;;;;;9.90;100.00;97839.41;5000804;28;20053;-62
2023/09/27 06:35:49;;;;;;;7.28;5.53;;;;;;;9.97;100.00;97831.16;4998751;28;20517;-63
2023/09/27 06:38:21;;;;;;;8.07;5.32;;;;;;;10.02;100.00;97837.50;4999452;28;20041;-62
2023/09/27 06:40:48;;;;;;;8.60;5.70;;;;;;;10.14;100.00;97833.97;5002345;28;20429;-62
2023/09/27 06:43:15;;;;;;;7.93;5.95;;;;;;;10.25;100.00;97833.13;5002320;28;20049;-62
2023/09/27 06:45:42;;;;;;;9.48;5.50;;;;;;;10.37;100.00;97835.81;4997392;28;20569;-62
2023/09/27 06:48:09;;;;;;;9.63;6.00;;;;;;;10.52;100.00;97832.63;5001136;28;20042;-63
2023/09/27 06:50:40;;;;;;;9.13;5.40;;;;;;;10.66;100.00;97835.06;5002081;28;20049;-62
2023/09/27 06:53:07;;;;;;;7.70;5.38;;;;;;;10.79;100.00;97829.34;5000529;28;20049;-63
2023/09/27 06:55:53;;;;;;;9.55;5.22;;;;;;;10.92;100.00;97822.78;4998663;28;20049;-62
2023/09/27 06:58:23;;;;;;;9.48;5.93;;;;;;;11.05;100.00;97827.09;5000970;28;20090;-62
2023/09/27 07:00:52;;;;;;;7.53;5.03;;;;;;;11.19;100.00;97815.94;5000234;28;20053;-63
2023/09/27 07:03:24;;;;;;;16.10;5.90;;;;;;;11.32;100.00;97818.34;4996164;28;20129;-63
2023/09/27 07:05:52;;;;;;;10.45;4.43;;;;;;;11.45;100.00;97814.50;5000850;28;20054;-63
2023/09/27 07:08:20;;;;;;;7.57;5.00;;;;;;;11.58;100.00;97816.03;4998972;28;20048;-62
2023/09/27 07:10:47;;;;;;;8.57;4.40;;;;;;;11.75;100.00;97817.91;5002769;28;20038;-63
2023/09/27 07:13:13;;;;;;;7.30;4.70;;;;;;;11.93;100.00;97821.41;5001891;28;20100;-62
2023/09/27 07:15:40;;;;;;;9.02;4.70;;;;;;;12.04;100.00;97814.22;5003203;28;20038;-63
2023/09/27 07:18:07;;;;;;;6.97;4.35;;;;;;;12.13;100.00;97814.66;4986089;28;20157;-63
2023/09/27 07:20:36;;;;;;;10.43;4.43;;;;;;;12.27;100.00;97817.84;4980244;28;20034;-63
2023/09/27 07:23:07;;;;;;;8.52;4.60;;;;;;;12.35;100.00;97815.50;4986061;28;20122;-62
2023/09/27 07:25:37;;;;;;;6.22;4.40;;;;;;;12.49;100.00;97812.38;5007285;28;20142;-63
2023/09/27 07:28:05;;;;;;;7.57;4.10;;;;;;;12.63;100.00;97812.03;5000486;28;20089;-63
2023/09/27 07:30:34;;;;;;;6.13;4.35;;;;;;;12.79;100.00;97816.53;5003190;28;20408;-62
2023/09/27 07:33:11;;;;;;;6.20;4.60;;;;;;;12.97;100.00;97809.13;5002035;28;20513;-63
2023/09/27 07:35:43;;;;;;;6.70;4.05;;;;;;;13.08;100.00;97807.31;5007480;28;20065;-63
2023/09/27 07:38:13;;;;;;;6.90;3.88;;;;;;;13.18;100.00;97803.84;5002803;28;20034;-62
2023/09/27 07:40:44;;;;;;;5.22;3.35;;;;;;;13.28;100.00;97806.66;4997609;28;20037;-63
2023/09/27 07:43:11;;;;;;;5.43;3.72;;;;;;;13.37;100.00;97802.38;5005329;28;20045;-62
2023/09/27 07:45:41;;;;;;;5.85;3.58;;;;;;;13.49;100.00;97801.44;5003041;28;20052;-63
2023/09/27 07:48:09;;;;;;;4.80;3.47;;;;;;;13.61;100.00;97804.78;5002945;28;20034;-63
2023/09/27 07:50:38;;;;;;;7.40;4.10;;;;;;;13.74;100.00;97795.34;5003022;28;20042;-62
2023/09/27 07:53:08;;;;;;;6.22;3.38;;;;;;;13.87;100.00;97799.50;5001950;28;20046;-64
2023/09/27 07:55:46;;;;;;;5.23;3.00;;;;;;;13.97;100.00;97790.56;5002074;28;20041;-63
2023/09/27 07:58:13;;;;;;;4.80;3.10;;;;;;;14.09;100.00;97803.16;4998606;28;20311;-64
2023/09/27 08:00:40;;;;;;;5.22;3.28;;;;;;;14.20;100.00;97796.69;5004553;28;20050;-63
2023/09/27 08:03:18;;;;;;;6.43;3.67;;;;;;;14.32;100.00;97804.63;5003336;28;20046;-63
2023/09/27 08:05:45;;;;;;;8.07;3.67;;;;;;;14.52;100.00;97795.72;4998544;28;20041;-63
2023/09/27 08:08:16;;;;;;;6.45;3.47;;;;;;;15.05;100.00;97794.78;4987992;28;20624;-63
2023/09/27 08:10:43;;;;;;;4.65;3.20;;;;;;;15.24;100.00;97794.25;4998593;28;20050;-63
2023/09/27 08:13:11;;;;;;;4.88;2.97;;;;;;;15.49;100.00;97795.34;5002445;28;20080;-63
2023/09/27 08:15:39;;;;;;;4.75;2.80;;;;;;;15.51;100.00;97782.22;5007503;28;20049;-63
2023/09/27 08:18:06;;;;;;;8.32;3.15;;;;;;;15.57;100.00;97791.22;5003381;28;20041;-63
2023/09/27 08:20:36;;;;;;;5.72;3.20;;;;;;;15.74;100.00;97791.75;5006609;28;20042;-63
2023/09/27 08:23:03;;;;;;;4.13;3.05;;;;;;;15.91;100.00;97787.06;5005572;28;20604;-63
2023/09/27 08:25:30;;;;;;;7.03;3.33;;;;;;;15.96;100.00;97793.38;4977161;28;20097;-63
2023/09/27 08:27:57;;;;;;;4.28;3.00;;;;;;;16.13;99.30;97784.03;4996783;28;20046;-63
2023/09/27 08:30:23;;;;;;;4.90;3.20;;;;;;;16.23;98.91;97786.75;5004141;28;20056;-63
2023/09/27 08:32:51;;;;;;;5.75;3.28;;;;;;;16.43;100.00;97795.94;5006066;28;20428;-63
2023/09/27 08:35:18;;;;;;;5.85;2.97;;;;;;;16.48;99.11;97782.25;5002509;28;20501;-63
2023/09/27 08:37:45;;;;;;;4.22;2.90;;;;;;;16.50;97.49;97779.25;5006342;28;20519;-63
2023/09/27 08:40:15;;;;;;;38.85;6.75;;;;;;;16.54;98.47;97779.50;5002462;28;20042;-63
2023/09/27 08:42:43;;;;;;;7.40;2.90;;;;;;;16.59;97.88;97772.09;5002331;28;20041;-63
2023/09/27 08:45:14;;;;;;;6.13;3.10;;;;;;;16.62;97.00;97768.78;5004321;28;20045;-63
2023/09/27 08:47:42;;;;;;;;;;;;;;;16.66;96.52;97765.50;5004911;28;20050;-63
2023/09/27 08:50:13;;;;;;;5.43;2.97;;;;;;;16.72;96.68;97767.91;5003886;28;20008;-62
2023/09/27 08:52:50;;;;;;;;;;;;;;;16.82;96.45;97760.75;5004373;28;20045;-62
2023/09/27 08:55:18;;;;;;;4.80;2.97;;;;;;;16.88;95.28;97756.91;5000583;28;19968;-62
2023/09/27 08:57:47;;;;;;;6.38;2.80;;;;;;;17.03;96.66;97758.72;5000651;28;20046;-63
2023/09/27 09:00:16;;;;;;;6.95;3.25;;;;;;;17.15;95.46;97750.97;5003118;28;20053;-62
2023/09/27 09:02:43;;;;;;;5.60;2.55;;;;;;;17.23;95.17;97743.25;4999203;28;20053;-63
2023/09/27 09:05:13;;;;;;;4.25;2.20;;;;;;;17.28;93.95;97737.72;5001893;28;20059;-63
2023/09/27 09:07:40;;;;;;;4.53;2.35;;;;;;;17.36;92.33;97733.56;5004165;28;20121;-62
2023/09/27 09:10:15;;;;;;;4.70;2.60;;;;;;;17.46;91.50;97736.19;5006597;28;20058;-62
2023/09/27 09:12:44;;;;;;;5.05;2.80;;;;;;;17.55;89.58;97726.25;5002925;28;20050;-63
2023/09/27 09:15:26;;;;;;;5.57;3.00;;;;;;;17.77;90.73;97730.41;5002476;28;20452;-62
2023/09/27 09:17:57;;;;;;;7.78;3.20;;;;;;;18.01;88.86;97729.59;4999607;28;20592;-63
2023/09/27 09:20:32;;;;;;;5.70;3.28;;;;;;;18.11;87.25;97736.09;5002926;28;20073;-63
2023/09/27 09:23:04;;;;;;;5.20;2.40;;;;;;;18.19;85.65;97724.47;5002517;28;20049;-63
2023/09/27 09:25:31;;;;;;;;;;;;;;;18.22;85.27;97721.16;5002256;28;20073;-63
2023/09/27 09:28:12;;;;;;;4.45;2.55;;;;;;;18.26;84.47;97715.91;5001545;28;19929;-62
2023/09/27 09:30:40;;;;;;;5.25;2.55;;;;;;;18.38;84.39;97720.94;5002447;28;20065;-63
2023/09/27 09:33:15;;;;;;;5.63;2.70;;;;;;;18.49;85.75;97725.19;5001535;28;20052;-62
2023/09/27 09:35:42;;;;;;;5.68;2.53;;;;;;;18.52;86.05;97718.28;5001829;28;20383;-63
2023/09/27 09:38:09;;;;;;;5.78;3.28;;;;;;;18.60;85.75;97714.88;5002492;28;20045;-63
2023/09/27 09:40:53;;;;;;;5.38;3.05;;;;;;;18.68;84.48;97713.38;5002663;28;20755;-62
2023/09/27 09:43:36;;;;;;;7.25;3.15;;;;;;;18.73;84.21;97710.59;5001604;28;20042;-62
2023/09/27 09:46:10;;;;;;;4.70;2.47;;;;;;;18.79;83.92;97706.66;5002475;28;20045;-62
2023/09/27 09:48:40;;;;;;;5.68;2.90;;;;;;;18.82;85.22;97706.06;5002685;28;20100;-63
2023/09/27 09:51:07;;;;;;;5.63;3.08;;;;;;;18.83;84.59;97713.16;5002656;28;20042;-63
2023/09/27 09:53:39;;;;;;;8.60;3.72;;;;;;;18.91;85.42;97708.13;5002323;28;20072;-63
2023/09/27 09:56:10;;;;;;;5.82;3.53;;;;;;;19.00;84.99;97702.75;5007104;28;20048;-62
2023/09/27 09:59:11;;;;;;;6.90;3.05;;;;;;;19.07;85.18;97700.50;5002173;28;20037;-63
2023/09/27 10:01:39;;;;;;;7.22;3.35;;;;;;;19.20;83.43;97704.41;4991892;28;20088;-62
2023/09/27 10:04:07;;;;;;;6.38;3.17;;;;;;;19.21;83.94;97700.53;5002196;28;20041;-63
2023/09/27 10:06:36;;;;;;;6.35;2.85;;;;;;;19.27;83.75;97693.81;5002292;28;20068;-62
2023/09/27 10:09:15;;;;;;;6.13;3.25;;;;;;;19.36;83.26;97694.75;5001745;28;20041;-62
2023/09/27 10:11:44;;;;;;;6.57;3.10;;;;;;;19.43;81.77;97690.81;5002094;28;20045;-62
2023/09/27 10:14:15;;;;;;;7.03;3.30;;;;;;;19.48;81.88;97687.97;5001515;28;20042;-63
2023/09/27 10:16:43;;;;;;;9.85;3.10;;;;;;;19.58;80.65;97689.72;4998101;28;20049;-62
2023/09/27 10:19:10;;;;;;;7.75;2.95;;;;;;;19.62;80.79;97688.00;5001297;28;20049;-62
2023/09/27 10:22:07;;;;;;;7.65;3.33;;;;;;;19.76;79.12;97688.00;5001152;28;20046;-62
2023/09/27 10:24:36;;;;;;;7.78;3.50;;;;;;;19.83;78.08;97682.09;5001130;28;20050;-62
2023/09/27 10:27:02;;;;;;;5.93;2.80;;;;;;;19.98;76.53;97678.22;4981266;28;20048;-63
2023/09/27 10:29:29;;;;;;;5.18;2.67;;;;;;;20.08;76.84;97669.00;5001895;28;20557;-62
2023/09/27 10:31:56;;;;;;;5.38;2.70;;;;;;;20.22;75.69;97671.69;5002278;28;20051;-62
2023/09/27 10:34:26;;;;;;;5.65;2.83;;;;;;;20.21;75.26;97664.56;4999048;28;20129;-62
2023/09/27 10:36:57;;;;;;;6.50;2.38;;;;;;;20.28;73.39;97671.28;5002622;28;20057;-62
2023/09/27 10:40:19;;;;;;;5.15;2.50;;;;;;;20.33;74.10;97669.53;4996417;28;20743;-62
2023/09/27 10:42:46;;;;;;;5.90;2.70;;;;;;;20.42;72.20;97669.63;5000184;28;20045;-62
2023/09/27 10:45:13;;;;;;;4.88;2.28;;;;;;;20.38;72.64;97663.94;5001313;28;20049;-62
2023/09/27 10:47:40;;;;;;;5.57;2.17;;;;;;;20.40;71.09;97667.19;5001643;28;20054;-63
2023/09/27 10:50:10;;;;;;;5.07;1.90;;;;;;;20.43;71.50;97663.81;5000591;28;20046;-62
2023/09/27 10:52:38;;;;;;;4.03;2.40;;;;;;;20.35;71.14;97662.59;5001176;28;20054;-62
2023/09/27 10:55:14;;;;;;;4.07;1.90;;;;;;;20.40;71.78;97668.00;5000507;28;20118;-62
2023/09/27 10:57:41;;;;;;;5.10;2.63;;;;;;;20.45;70.97;97663.50;5001319;28;20509;-63
2023/09/27 11:00:12;;;;;;;6.20;2.47;;;;;;;20.44;70.39;97670.94;5001272;28;20049;-62
2023/09/27 11:02:39;;;;;;;4.28;2.13;;;;;;;20.48;69.66;97663.69;5001783;28;20382;-62
2023/09/27 11:05:07;;;;;;;5.20;2.75;;;;;;;20.53;68.91;97658.06;5002738;28;20042;-62
2023/09/27 11:07:45;;;;;;;5.63;3.13;;;;;;;20.59;68.82;97658.78;5001704;28;20054;-62
2023/09/27 11:10:37;;;;;;;3.42;1.85;;;;;;;20.65;68.58;97649.25;5001564;28;20116;-62
2023/09/27 11:13:11;;;;;;;3.83;2.00;;;;;;;20.67;68.33;97655.28;5000668;28;20054;-62
2023/09/27 11:15:39;;;;;;;6.13;3.35;;;;;;;20.69;68.01;97652.22;5003886;28;20739;-62
2023/09/27 11:18:12;;;;;;;3.50;1.27;;;;;;;20.90;61.75;97646.25;5003509;28;20073;-62
2023/09/27 11:20:39;;;;;;;3.25;1.40;;;;;;;21.13;59.27;97643.47;5001152;28;20057;-62
2023/09/27 11:23:06;;;;;;;2.38;1.23;;;;;;;21.12;60.20;97637.13;5001741;28;20670;-62
2023/09/27 11:25:36;;;;;;;4.57;1.42;;;;;;;21.11;60.06;97631.97;5001600;28;20069;-62
2023/09/27 11:28:03;;;;;;;3.30;1.58;;;;;;;21.16;62.07;97637.34;5001826;28;20041;-62
2023/09/27 11:30:32;;;;;;;3.05;1.55;;;;;;;21.20;62.38;97624.56;5000900;28;20417;-62
2023/09/27 11:33:04;;;;;;;4.88;1.63;;;;;;;21.26;59.97;97617.00;5000648;28;20037;-62
2023/09/27 11:35:32;;;;;;;4.13;1.40;;;;;;;21.33;58.54;97608.25;5000351;28;20061;-62
2023/09/27 11:38:12;;;;;;;2.97;1.52;;;;;;;21.44;59.14;97599.41;5003257;28;20100;-62